CJT567 CYWG-CYVR
Flight info
| Callsign | CJT567 |
|---|---|
| Flight time | N/A |
| Altitude | 34000 |
| Route | VOGIG2/31 DCT LIVBI DCT DUKPO DCT FAREN DCT EMLIK Q828 BOOTH CANUC6 |
| Aircraft | B763/H-SDE3/2105 |
Departure
| Time | N/A |
|---|---|
| Airport | Winnipeg / James Armstrong Richardson International Airport (CYWG) |
Arrival
| Time | 2026-05-03 21:54 |
|---|---|
| Airport | Vancouver International Airport (CYVR) |
| Time | Latitude | Longitude | Altitude | Speed | Heading |
|---|---|---|---|---|---|
| 2026-05-03 20:15 | 50.45873 | -107.09644 | 35732 ft | 403 kts | 276° |
| 2026-05-03 20:15 | 50.45890 | -107.18462 | 35731 ft | 407 kts | 276° |
| 2026-05-03 20:16 | 50.45900 | -107.27339 | 35743 ft | 408 kts | 276° |
| 2026-05-03 20:16 | 50.45903 | -107.36221 | 35744 ft | 406 kts | 276° |
| 2026-05-03 20:17 | 50.45901 | -107.45055 | 35749 ft | 406 kts | 276° |
| 2026-05-03 20:17 | 50.45891 | -107.53899 | 35763 ft | 407 kts | 276° |
| 2026-05-03 20:18 | 50.45872 | -107.62812 | 35763 ft | 406 kts | 276° |
| 2026-05-03 20:18 | 50.45850 | -107.71702 | 35771 ft | 410 kts | 275° |
| 2026-05-03 20:19 | 50.45819 | -107.80586 | 35774 ft | 410 kts | 275° |
| 2026-05-03 20:19 | 50.45781 | -107.89510 | 35774 ft | 410 kts | 275° |
| 2026-05-03 20:20 | 50.45738 | -107.98419 | 35778 ft | 411 kts | 275° |
| 2026-05-03 20:20 | 50.45686 | -108.07379 | 35772 ft | 412 kts | 275° |
| 2026-05-03 20:21 | 50.45628 | -108.16377 | 35781 ft | 410 kts | 275° |
| 2026-05-03 20:21 | 50.45565 | -108.25272 | 35781 ft | 412 kts | 275° |
| 2026-05-03 20:22 | 50.45490 | -108.34256 | 35773 ft | 411 kts | 275° |
| 2026-05-03 20:22 | 50.45413 | -108.43189 | 35778 ft | 412 kts | 275° |
| 2026-05-03 20:23 | 50.45328 | -108.52141 | 35788 ft | 413 kts | 275° |
| 2026-05-03 20:23 | 50.45234 | -108.61141 | 35785 ft | 413 kts | 275° |
| 2026-05-03 20:24 | 50.45135 | -108.70158 | 35804 ft | 412 kts | 274° |
| 2026-05-03 20:24 | 50.45029 | -108.79104 | 35807 ft | 414 kts | 274° |
| 2026-05-03 20:25 | 50.44914 | -108.88153 | 35813 ft | 414 kts | 274° |
| 2026-05-03 20:25 | 50.44793 | -108.97188 | 35811 ft | 414 kts | 274° |
| 2026-05-03 20:26 | 50.44666 | -109.06207 | 35820 ft | 416 kts | 274° |
| 2026-05-03 20:26 | 50.44530 | -109.15234 | 35817 ft | 416 kts | 274° |
| 2026-05-03 20:27 | 50.44388 | -109.24270 | 35816 ft | 415 kts | 274° |
| 2026-05-03 20:27 | 50.44240 | -109.33247 | 35823 ft | 416 kts | 274° |
| 2026-05-03 20:28 | 50.44083 | -109.42281 | 35815 ft | 414 kts | 275° |
| 2026-05-03 20:28 | 50.43920 | -109.51340 | 35820 ft | 415 kts | 274° |
| 2026-05-03 20:29 | 50.43751 | -109.60354 | 35824 ft | 417 kts | 274° |
| 2026-05-03 20:29 | 50.43573 | -109.69430 | 35843 ft | 419 kts | 274° |
| 2026-05-03 20:30 | 50.43386 | -109.78583 | 35842 ft | 420 kts | 274° |
| 2026-05-03 20:30 | 50.43193 | -109.87662 | 35848 ft | 420 kts | 274° |
| 2026-05-03 20:31 | 50.42994 | -109.96736 | 35849 ft | 419 kts | 274° |
| 2026-05-03 20:31 | 50.42788 | -110.05839 | 35860 ft | 421 kts | 274° |
| 2026-05-03 20:32 | 50.42571 | -110.15077 | 35866 ft | 422 kts | 274° |
| 2026-05-03 20:32 | 50.42348 | -110.24179 | 35867 ft | 421 kts | 274° |
| 2026-05-03 20:33 | 50.42120 | -110.33343 | 35864 ft | 420 kts | 274° |
| 2026-05-03 20:33 | 50.41882 | -110.42509 | 35870 ft | 422 kts | 274° |
| 2026-05-03 20:34 | 50.41637 | -110.51690 | 35866 ft | 423 kts | 274° |
| 2026-05-03 20:34 | 50.41384 | -110.60892 | 35864 ft | 422 kts | 273° |
| 2026-05-03 20:35 | 50.41126 | -110.70041 | 35871 ft | 423 kts | 273° |
| 2026-05-03 20:35 | 50.40859 | -110.79207 | 35867 ft | 424 kts | 273° |
| 2026-05-03 20:36 | 50.40585 | -110.88405 | 35871 ft | 424 kts | 273° |
| 2026-05-03 20:36 | 50.40302 | -110.97643 | 35872 ft | 425 kts | 273° |
| 2026-05-03 20:37 | 50.40013 | -111.06842 | 35866 ft | 425 kts | 273° |
| 2026-05-03 20:37 | 50.39716 | -111.16086 | 35873 ft | 423 kts | 273° |
| 2026-05-03 20:38 | 50.39412 | -111.25301 | 35875 ft | 427 kts | 272° |
| 2026-05-03 20:38 | 50.39098 | -111.34578 | 35876 ft | 425 kts | 272° |
| 2026-05-03 20:39 | 50.38779 | -111.43808 | 35882 ft | 426 kts | 273° |
| 2026-05-03 20:39 | 50.38451 | -111.53054 | 35882 ft | 427 kts | 273° |
| 2026-05-03 20:40 | 50.38116 | -111.62318 | 35883 ft | 427 kts | 272° |
| 2026-05-03 20:40 | 50.37771 | -111.71664 | 35895 ft | 429 kts | 271° |
| 2026-05-03 20:41 | 50.37419 | -111.80954 | 35891 ft | 429 kts | 272° |
| 2026-05-03 20:41 | 50.37061 | -111.90231 | 35895 ft | 428 kts | 272° |
| 2026-05-03 20:42 | 50.36695 | -111.99534 | 35900 ft | 430 kts | 272° |
| 2026-05-03 20:42 | 50.36319 | -112.08890 | 35897 ft | 430 kts | 271° |
| 2026-05-03 20:43 | 50.35937 | -112.18187 | 35897 ft | 431 kts | 271° |
| 2026-05-03 20:43 | 50.35547 | -112.27510 | 35902 ft | 430 kts | 271° |
| 2026-05-03 20:44 | 50.35148 | -112.36865 | 35903 ft | 433 kts | 271° |
| 2026-05-03 20:44 | 50.34740 | -112.46256 | 35908 ft | 434 kts | 271° |
| 2026-05-03 20:45 | 50.34322 | -112.55684 | 35914 ft | 433 kts | 271° |
| 2026-05-03 20:45 | 50.33900 | -112.65067 | 35917 ft | 433 kts | 271° |
| 2026-05-03 20:46 | 50.33470 | -112.74442 | 35928 ft | 435 kts | 270° |
| 2026-05-03 20:46 | 50.33032 | -112.83821 | 35929 ft | 434 kts | 270° |
| 2026-05-03 20:47 | 50.32584 | -112.93267 | 35931 ft | 437 kts | 270° |
| 2026-05-03 20:47 | 50.32127 | -113.02696 | 35931 ft | 436 kts | 270° |
| 2026-05-03 20:48 | 50.31664 | -113.12116 | 35932 ft | 436 kts | 270° |
| 2026-05-03 20:48 | 50.31191 | -113.21593 | 35931 ft | 437 kts | 270° |
| 2026-05-03 20:49 | 50.30712 | -113.31025 | 35942 ft | 437 kts | 270° |
| 2026-05-03 20:49 | 50.30225 | -113.40443 | 35937 ft | 437 kts | 270° |
| 2026-05-03 20:50 | 50.29731 | -113.49876 | 35930 ft | 437 kts | 270° |
| 2026-05-03 20:50 | 50.29227 | -113.59348 | 35940 ft | 440 kts | 270° |
| 2026-05-03 20:51 | 50.28714 | -113.68822 | 35949 ft | 439 kts | 269° |
| 2026-05-03 20:51 | 50.28196 | -113.78266 | 35952 ft | 439 kts | 270° |
| 2026-05-03 20:52 | 50.27664 | -113.87804 | 36198 ft | 438 kts | 269° |
| 2026-05-03 20:52 | 50.27401 | -113.92438 | 36179 ft | 426 kts | 270° |
| 2026-05-03 20:52 | 50.27143 | -113.96944 | 36106 ft | 416 kts | 270° |
| 2026-05-03 20:52 | 50.26889 | -114.01379 | 35958 ft | 402 kts | 270° |
| 2026-05-03 20:53 | 50.26641 | -114.05680 | 36016 ft | 395 kts | 270° |
| 2026-05-03 20:53 | 50.26149 | -114.14259 | 36019 ft | 405 kts | 270° |
| 2026-05-03 20:54 | 50.25629 | -114.23119 | 36020 ft | 413 kts | 270° |
| 2026-05-03 20:54 | 50.24818 | -114.36658 | 36031 ft | 420 kts | 270° |
| 2026-05-03 20:55 | 50.24269 | -114.45667 | 36032 ft | 418 kts | 270° |
| 2026-05-03 20:55 | 50.23714 | -114.54697 | 36051 ft | 419 kts | 270° |
| 2026-05-03 20:56 | 50.23154 | -114.63681 | 36046 ft | 419 kts | 269° |
| 2026-05-03 20:56 | 50.22581 | -114.72742 | 36054 ft | 420 kts | 269° |
| 2026-05-03 20:57 | 50.22004 | -114.81774 | 36051 ft | 420 kts | 269° |
| 2026-05-03 20:57 | 50.21419 | -114.90799 | 36055 ft | 420 kts | 269° |
| 2026-05-03 20:58 | 50.20825 | -114.99863 | 36065 ft | 421 kts | 269° |
| 2026-05-03 20:58 | 50.20226 | -115.08897 | 36067 ft | 422 kts | 269° |
| 2026-05-03 20:59 | 50.19616 | -115.17986 | 36063 ft | 422 kts | 269° |
| 2026-05-03 20:59 | 50.19000 | -115.27050 | 36064 ft | 424 kts | 269° |
| 2026-05-03 21:00 | 50.18480 | -115.34636 | 36070 ft | 424 kts | 269° |
| 2026-05-03 21:00 | 50.17738 | -115.45316 | 36071 ft | 425 kts | 269° |
| 2026-05-03 21:01 | 50.17095 | -115.54449 | 36060 ft | 423 kts | 269° |
| 2026-05-03 21:01 | 50.16449 | -115.63543 | 36067 ft | 425 kts | 268° |
| 2026-05-03 21:02 | 50.15792 | -115.72686 | 36068 ft | 427 kts | 268° |
| 2026-05-03 21:02 | 50.15124 | -115.81860 | 36068 ft | 427 kts | 268° |
| 2026-05-03 21:03 | 50.14456 | -115.90940 | 36082 ft | 425 kts | 268° |
| 2026-05-03 21:03 | 50.13773 | -116.00136 | 36084 ft | 428 kts | 268° |
| 2026-05-03 21:04 | 50.13084 | -116.09300 | 36082 ft | 427 kts | 268° |
| 2026-05-03 21:04 | 50.12387 | -116.18464 | 36089 ft | 427 kts | 268° |
| 2026-05-03 21:05 | 50.11684 | -116.27634 | 36084 ft | 429 kts | 268° |
| 2026-05-03 21:05 | 50.10969 | -116.36853 | 36084 ft | 430 kts | 268° |
| 2026-05-03 21:06 | 50.10251 | -116.46014 | 36078 ft | 429 kts | 268° |
| 2026-05-03 21:06 | 50.09518 | -116.55264 | 36075 ft | 431 kts | 268° |
| 2026-05-03 21:07 | 50.08778 | -116.64507 | 36071 ft | 431 kts | 268° |
| 2026-05-03 21:07 | 50.08033 | -116.73723 | 36071 ft | 433 kts | 267° |
| 2026-05-03 21:08 | 50.07274 | -116.83022 | 36061 ft | 434 kts | 267° |
| 2026-05-03 21:08 | 50.06509 | -116.92291 | 36053 ft | 433 kts | 267° |
| 2026-05-03 21:09 | 50.05736 | -117.01564 | 36044 ft | 434 kts | 267° |
| 2026-05-03 21:09 | 50.04952 | -117.10892 | 36045 ft | 435 kts | 268° |
| 2026-05-03 21:10 | 50.04163 | -117.20168 | 36040 ft | 434 kts | 268° |
| 2026-05-03 21:10 | 50.03364 | -117.29487 | 36046 ft | 436 kts | 268° |
| 2026-05-03 21:11 | 50.02557 | -117.38809 | 36052 ft | 438 kts | 268° |
| 2026-05-03 21:11 | 50.01735 | -117.48198 | 36059 ft | 439 kts | 268° |
| 2026-05-03 21:12 | 50.00909 | -117.57549 | 36053 ft | 438 kts | 268° |
| 2026-05-03 21:12 | 50.00069 | -117.66991 | 36061 ft | 442 kts | 267° |
| 2026-05-03 21:13 | 49.99225 | -117.76350 | 36063 ft | 440 kts | 267° |
| 2026-05-03 21:13 | 49.98369 | -117.85785 | 36070 ft | 441 kts | 267° |
| 2026-05-03 21:14 | 49.97506 | -117.95205 | 36066 ft | 442 kts | 267° |
| 2026-05-03 21:14 | 49.96632 | -118.04647 | 36074 ft | 442 kts | 267° |
| 2026-05-03 21:15 | 49.95752 | -118.14083 | 36070 ft | 443 kts | 267° |
| 2026-05-03 21:15 | 49.94861 | -118.23553 | 36067 ft | 446 kts | 267° |
| 2026-05-03 21:16 | 49.93957 | -118.33044 | 36076 ft | 446 kts | 268° |
| 2026-05-03 21:16 | 49.93045 | -118.42561 | 36084 ft | 445 kts | 267° |
| 2026-05-03 21:17 | 49.92131 | -118.52000 | 36074 ft | 440 kts | 268° |
| 2026-05-03 21:17 | 49.91684 | -118.56567 | 36060 ft | 428 kts | 268° |
| 2026-05-03 21:17 | 49.91239 | -118.61122 | 35326 ft | 435 kts | 268° |
| 2026-05-03 21:18 | 49.90783 | -118.65832 | 34073 ft | 449 kts | 266° |
| 2026-05-03 21:18 | 49.90314 | -118.70531 | 34131 ft | 430 kts | 267° |
| 2026-05-03 21:18 | 49.89403 | -118.79736 | 34085 ft | 438 kts | 267° |
| 2026-05-03 21:19 | 49.88468 | -118.89109 | 34077 ft | 450 kts | 266° |
| 2026-05-03 21:19 | 49.87487 | -118.98811 | 34083 ft | 457 kts | 266° |
| 2026-05-03 21:20 | 49.86508 | -119.08408 | 34083 ft | 453 kts | 267° |
| 2026-05-03 21:20 | 49.85521 | -119.18023 | 34074 ft | 455 kts | 267° |
| 2026-05-03 21:21 | 49.84517 | -119.27718 | 34070 ft | 456 kts | 267° |
| 2026-05-03 21:21 | 49.83507 | -119.37389 | 34057 ft | 457 kts | 267° |
| 2026-05-03 21:22 | 49.82492 | -119.47022 | 34059 ft | 457 kts | 267° |
| 2026-05-03 21:22 | 49.81461 | -119.56722 | 34063 ft | 457 kts | 267° |
| 2026-05-03 21:23 | 49.80429 | -119.66371 | 34057 ft | 456 kts | 266° |
| 2026-05-03 21:23 | 49.79378 | -119.76115 | 34023 ft | 461 kts | 266° |
| 2026-05-03 21:24 | 49.78316 | -119.85871 | 34042 ft | 462 kts | 266° |
| 2026-05-03 21:24 | 49.77247 | -119.95607 | 34065 ft | 461 kts | 266° |
| 2026-05-03 21:25 | 49.76172 | -120.05329 | 34082 ft | 463 kts | 266° |
| 2026-05-03 21:25 | 49.75081 | -120.15107 | 34078 ft | 460 kts | 266° |
| 2026-05-03 21:26 | 49.74282 | -120.24913 | 33494 ft | 460 kts | 277° |
| 2026-05-03 21:26 | 49.74574 | -120.29703 | 33492 ft | 438 kts | 288° |
| 2026-05-03 21:26 | 49.75316 | -120.34166 | 33265 ft | 424 kts | 294° |
| 2026-05-03 21:27 | 49.76220 | -120.38416 | 32814 ft | 420 kts | 295° |
| 2026-05-03 21:27 | 49.77159 | -120.42701 | 32141 ft | 422 kts | 295° |
| 2026-05-03 21:27 | 49.78122 | -120.46948 | 31497 ft | 423 kts | 295° |
| 2026-05-03 21:27 | 49.79109 | -120.51217 | 30834 ft | 424 kts | 295° |
| 2026-05-03 21:28 | 49.80136 | -120.55502 | 30323 ft | 421 kts | 295° |
| 2026-05-03 21:28 | 49.81165 | -120.59686 | 29740 ft | 420 kts | 295° |
| 2026-05-03 21:28 | 49.82207 | -120.63842 | 29235 ft | 417 kts | 295° |
| 2026-05-03 21:28 | 49.83266 | -120.68044 | 28818 ft | 413 kts | 295° |
| 2026-05-03 21:29 | 49.84292 | -120.72129 | 28327 ft | 410 kts | 294° |
| 2026-05-03 21:29 | 49.85329 | -120.76224 | 27852 ft | 407 kts | 294° |
| 2026-05-03 21:29 | 49.86353 | -120.80258 | 27408 ft | 403 kts | 295° |
| 2026-05-03 21:29 | 49.87389 | -120.84310 | 26887 ft | 401 kts | 295° |
| 2026-05-03 21:30 | 49.88409 | -120.88284 | 26362 ft | 400 kts | 295° |
| 2026-05-03 21:30 | 49.89431 | -120.92242 | 25894 ft | 397 kts | 295° |
| 2026-05-03 21:30 | 49.90466 | -120.96197 | 25410 ft | 394 kts | 295° |
| 2026-05-03 21:30 | 49.91478 | -121.00064 | 24980 ft | 391 kts | 295° |
| 2026-05-03 21:31 | 49.92288 | -121.04089 | 24380 ft | 394 kts | 282° |
| 2026-05-03 21:31 | 49.92407 | -121.08288 | 23897 ft | 395 kts | 266° |
| 2026-05-03 21:31 | 49.91814 | -121.12423 | 23437 ft | 396 kts | 251° |
| 2026-05-03 21:31 | 49.90561 | -121.16198 | 22990 ft | 395 kts | 238° |
| 2026-05-03 21:32 | 49.88968 | -121.19685 | 22528 ft | 393 kts | 236° |
| 2026-05-03 21:32 | 49.87384 | -121.23065 | 22072 ft | 392 kts | 236° |
| 2026-05-03 21:32 | 49.85786 | -121.26466 | 21615 ft | 391 kts | 236° |
| 2026-05-03 21:32 | 49.84198 | -121.29864 | 21165 ft | 390 kts | 236° |
| 2026-05-03 21:33 | 49.82626 | -121.33237 | 20719 ft | 387 kts | 236° |
| 2026-05-03 21:33 | 49.81056 | -121.36629 | 20266 ft | 383 kts | 240° |
| 2026-05-03 21:33 | 49.79665 | -121.40084 | 19837 ft | 380 kts | 240° |
| 2026-05-03 21:33 | 49.78254 | -121.43487 | 19418 ft | 379 kts | 240° |
| 2026-05-03 21:34 | 49.76841 | -121.46896 | 18999 ft | 377 kts | 239° |
| 2026-05-03 21:34 | 49.75435 | -121.50272 | 18585 ft | 374 kts | 239° |
| 2026-05-03 21:34 | 49.74020 | -121.53661 | 18173 ft | 372 kts | 239° |
| 2026-05-03 21:34 | 49.72616 | -121.57022 | 17775 ft | 370 kts | 239° |
| 2026-05-03 21:35 | 49.71237 | -121.60314 | 17374 ft | 368 kts | 239° |
| 2026-05-03 21:35 | 49.69850 | -121.63622 | 16989 ft | 367 kts | 239° |
| 2026-05-03 21:35 | 49.68473 | -121.66904 | 16593 ft | 366 kts | 238° |
| 2026-05-03 21:35 | 49.67087 | -121.70200 | 16189 ft | 362 kts | 238° |
| 2026-05-03 21:36 | 49.65748 | -121.73378 | 16041 ft | 354 kts | 239° |
| 2026-05-03 21:36 | 49.64409 | -121.76558 | 16052 ft | 352 kts | 238° |
| 2026-05-03 21:36 | 49.63052 | -121.79775 | 16055 ft | 363 kts | 238° |
| 2026-05-03 21:36 | 49.61670 | -121.83048 | 16020 ft | 367 kts | 238° |
| 2026-05-03 21:37 | 49.60289 | -121.86312 | 16022 ft | 363 kts | 238° |
| 2026-05-03 21:37 | 49.58917 | -121.89552 | 16006 ft | 361 kts | 238° |
| 2026-05-03 21:37 | 49.57558 | -121.92755 | 16013 ft | 361 kts | 238° |
| 2026-05-03 21:37 | 49.56170 | -121.96027 | 15981 ft | 362 kts | 238° |
| 2026-05-03 21:38 | 49.54791 | -121.99270 | 15901 ft | 365 kts | 238° |
| 2026-05-03 21:38 | 49.53378 | -122.02592 | 15175 ft | 378 kts | 238° |
| 2026-05-03 21:38 | 49.52060 | -122.05683 | 14950 ft | 368 kts | 238° |
| 2026-05-03 21:38 | 49.50675 | -122.08925 | 14820 ft | 356 kts | 238° |
| 2026-05-03 21:39 | 49.49325 | -122.12086 | 14411 ft | 354 kts | 238° |
| 2026-05-03 21:39 | 49.47979 | -122.15234 | 13964 ft | 353 kts | 238° |
| 2026-05-03 21:39 | 49.46655 | -122.18379 | 13554 ft | 351 kts | 240° |
| 2026-05-03 21:39 | 49.45417 | -122.21527 | 13195 ft | 347 kts | 240° |
| 2026-05-03 21:40 | 49.44185 | -122.24634 | 13142 ft | 332 kts | 240° |
| 2026-05-03 21:40 | 49.43013 | -122.27588 | 13126 ft | 319 kts | 240° |
| 2026-05-03 21:40 | 49.41877 | -122.30450 | 13135 ft | 306 kts | 240° |
| 2026-05-03 21:40 | 49.40793 | -122.33175 | 13000 ft | 295 kts | 240° |
| 2026-05-03 21:41 | 49.39599 | -122.35712 | 12522 ft | 297 kts | 229° |
| 2026-05-03 21:41 | 49.38452 | -122.37692 | 12237 ft | 294 kts | 230° |
| 2026-05-03 21:41 | 49.37121 | -122.40025 | 11889 ft | 291 kts | 229° |
| 2026-05-03 21:41 | 49.35777 | -122.42366 | 11507 ft | 290 kts | 229° |
| 2026-05-03 21:42 | 49.34450 | -122.44641 | 11135 ft | 287 kts | 229° |
| 2026-05-03 21:42 | 49.33122 | -122.46910 | 10772 ft | 285 kts | 229° |
| 2026-05-03 21:42 | 49.31803 | -122.49161 | 10425 ft | 283 kts | 229° |
| 2026-05-03 21:42 | 49.30508 | -122.51367 | 10090 ft | 280 kts | 228° |
| 2026-05-03 21:43 | 49.29200 | -122.53595 | 9562 ft | 282 kts | 228° |
| 2026-05-03 21:43 | 49.27902 | -122.55808 | 9123 ft | 278 kts | 228° |
| 2026-05-03 21:43 | 49.26625 | -122.57988 | 8604 ft | 277 kts | 228° |
| 2026-05-03 21:43 | 49.25345 | -122.60171 | 8151 ft | 275 kts | 228° |
| 2026-05-03 21:44 | 49.24077 | -122.62333 | 7755 ft | 271 kts | 228° |
| 2026-05-03 21:44 | 49.22823 | -122.64470 | 7285 ft | 271 kts | 229° |
| 2026-05-03 21:44 | 49.21588 | -122.66573 | 6953 ft | 266 kts | 227° |
| 2026-05-03 21:44 | 49.20478 | -122.68758 | 6860 ft | 261 kts | 238° |
| 2026-05-03 21:45 | 49.19488 | -122.71205 | 6379 ft | 275 kts | 238° |
| 2026-05-03 21:45 | 49.18491 | -122.73652 | 5927 ft | 273 kts | 238° |
| 2026-05-03 21:45 | 49.17497 | -122.76096 | 5449 ft | 271 kts | 238° |
| 2026-05-03 21:45 | 49.16547 | -122.78550 | 4994 ft | 268 kts | 248° |
| 2026-05-03 21:46 | 49.16219 | -122.81293 | 4606 ft | 260 kts | 277° |
| 2026-05-03 21:46 | 49.16462 | -122.83919 | 4410 ft | 245 kts | 281° |
| 2026-05-03 21:46 | 49.17018 | -122.86262 | 4061 ft | 238 kts | 309° |
| 2026-05-03 21:46 | 49.18263 | -122.87746 | 3872 ft | 224 kts | 342° |
| 2026-05-03 21:47 | 49.19802 | -122.88100 | 3464 ft | 229 kts | 7° |
| 2026-05-03 21:47 | 49.21235 | -122.87224 | 3275 ft | 224 kts | 40° |
| 2026-05-03 21:47 | 49.22109 | -122.85284 | 2971 ft | 223 kts | 74° |
| 2026-05-03 21:47 | 49.22075 | -122.83006 | 2941 ft | 210 kts | 110° |
| 2026-05-03 21:48 | 49.21227 | -122.81369 | 2937 ft | 193 kts | 149° |
| 2026-05-03 21:48 | 49.19991 | -122.80982 | 2888 ft | 179 kts | 195° |
| 2026-05-03 21:48 | 49.18990 | -122.81987 | 3107 ft | 176 kts | 235° |
| 2026-05-03 21:48 | 49.18459 | -122.83684 | 3385 ft | 186 kts | 252° |
| 2026-05-03 21:49 | 49.18014 | -122.85637 | 3002 ft | 200 kts | 254° |
| 2026-05-03 21:49 | 49.17715 | -122.87562 | 2877 ft | 172 kts | 262° |
| 2026-05-03 21:49 | 49.17598 | -122.89336 | 2963 ft | 170 kts | 269° |
| 2026-05-03 21:49 | 49.17534 | -122.91141 | 2936 ft | 170 kts | 268° |
| 2026-05-03 21:50 | 49.17468 | -122.92931 | 2915 ft | 167 kts | 269° |
| 2026-05-03 21:50 | 49.17584 | -122.94686 | 2875 ft | 172 kts | 282° |
| 2026-05-03 21:50 | 49.17802 | -122.96516 | 2624 ft | 173 kts | 282° |
| 2026-05-03 21:50 | 49.18003 | -122.98277 | 2367 ft | 165 kts | 282° |
| 2026-05-03 21:51 | 49.18198 | -122.99965 | 2123 ft | 159 kts | 282° |
| 2026-05-03 21:51 | 49.18390 | -123.01617 | 1909 ft | 158 kts | 282° |
| 2026-05-03 21:51 | 49.18581 | -123.03256 | 1698 ft | 158 kts | 282° |
| 2026-05-03 21:51 | 49.18769 | -123.04873 | 1488 ft | 156 kts | 282° |
| 2026-05-03 21:52 | 49.18955 | -123.06485 | 1277 ft | 153 kts | 282° |
| 2026-05-03 21:52 | 49.19138 | -123.08058 | 1070 ft | 151 kts | 282° |
| 2026-05-03 21:52 | 49.19318 | -123.09621 | 871 ft | 150 kts | 282° |
| 2026-05-03 21:52 | 49.19497 | -123.11181 | 672 ft | 150 kts | 282° |
| 2026-05-03 21:53 | 49.19675 | -123.12737 | 488 ft | 148 kts | 282° |
| 2026-05-03 21:53 | 49.19854 | -123.14266 | 318 ft | 148 kts | 282° |
| 2026-05-03 21:53 | 49.20026 | -123.15786 | 120 ft | 147 kts | 281° |
| 2026-05-03 21:53 | 49.20202 | -123.17300 | 21 ft | 133 kts | 282° |
| 2026-05-03 21:54 | 49.20309 | -123.18250 | 21 ft | 67 kts | 281° |
| 2026-05-03 21:54 | 49.20367 | -123.18722 | 21 ft | 25 kts | 278° |
| 2026-05-03 21:54 | 49.20383 | -123.18879 | 21 ft | 17 kts | 279° |
| 2026-05-03 21:54 | 49.20398 | -123.19129 | 21 ft | 27 kts | 263° |
| 2026-05-03 21:55 | 49.20355 | -123.19353 | 22 ft | 14 kts | 251° |
| 2026-05-03 21:55 | 49.20322 | -123.19495 | 21 ft | 8 kts | 250° |
| 2026-05-03 21:55 | 49.20303 | -123.19572 | 23 ft | 6 kts | 250° |
| 2026-05-03 21:55 | 49.20291 | -123.19601 | 23 ft | 2 kts | 225° |
| 2026-05-03 21:56 | 49.20276 | -123.19611 | 23 ft | 3 kts | 191° |
| 2026-05-03 21:56 | 49.20248 | -123.19586 | 23 ft | 6 kts | 109° |
| 2026-05-03 21:56 | 49.20233 | -123.19481 | 21 ft | 13 kts | 99° |
| 2026-05-03 21:56 | 49.20216 | -123.19315 | 21 ft | 17 kts | 100° |
| 2026-05-03 21:57 | 49.20195 | -123.19134 | 21 ft | 17 kts | 99° |
| 2026-05-03 21:57 | 49.20168 | -123.19034 | 21 ft | 7 kts | 156° |
| 2026-05-03 21:57 | 49.20108 | -123.19040 | 20 ft | 9 kts | 190° |
| 2026-05-03 21:57 | 49.20026 | -123.19062 | 19 ft | 15 kts | 190° |
| 2026-05-03 21:58 | 49.19907 | -123.19093 | 18 ft | 18 kts | 190° |
| 2026-05-03 21:58 | 49.19783 | -123.19128 | 18 ft | 18 kts | 190° |
| 2026-05-03 21:58 | 49.19652 | -123.19162 | 18 ft | 20 kts | 189° |
| 2026-05-03 21:58 | 49.19558 | -123.19169 | 18 ft | 9 kts | 152° |
| 2026-05-03 21:59 | 49.19500 | -123.19101 | 18 ft | 11 kts | 141° |
| 2026-05-03 21:59 | 49.19423 | -123.19009 | 18 ft | 15 kts | 142° |
| 2026-05-03 21:59 | 49.19339 | -123.18908 | 18 ft | 16 kts | 142° |
| 2026-05-03 21:59 | 49.19241 | -123.18790 | 19 ft | 18 kts | 142° |
| 2026-05-03 22:00 | 49.19134 | -123.18664 | 21 ft | 20 kts | 142° |
| 2026-05-03 22:00 | 49.19016 | -123.18522 | 21 ft | 20 kts | 142° |
| 2026-05-03 22:00 | 49.18961 | -123.18444 | 21 ft | 10 kts | 120° |
| 2026-05-03 22:00 | 49.18942 | -123.18331 | 21 ft | 12 kts | 98° |
| 2026-05-03 22:01 | 49.18925 | -123.18173 | 21 ft | 18 kts | 99° |
| 2026-05-03 22:01 | 49.18899 | -123.17950 | 20 ft | 25 kts | 100° |
| 2026-05-03 22:01 | 49.18869 | -123.17684 | 18 ft | 26 kts | 100° |
| 2026-05-03 22:01 | 49.18837 | -123.17410 | 18 ft | 26 kts | 101° |
| 2026-05-03 22:02 | 49.18810 | -123.17169 | 18 ft | 18 kts | 99° |
| 2026-05-03 22:02 | 49.18795 | -123.17033 | 18 ft | 9 kts | 101° |
| 2026-05-03 22:02 | 49.18791 | -123.16964 | 18 ft | 5 kts | 72° |
| 2026-05-03 22:02 | 49.18830 | -123.16946 | 18 ft | 10 kts | 0° |
| 2026-05-03 22:03 | 49.18872 | -123.16915 | 18 ft | 5 kts | 73° |
| 2026-05-03 22:03 | 49.18866 | -123.16840 | 18 ft | 4 kts | 100° |
| 2026-05-03 22:03 | 49.18866 | -123.16838 | 18 ft | 0 kts | 100° |
| 2026-05-03 22:04 | 49.18866 | -123.16839 | 18 ft | 0 kts | 100° |
| 2026-05-03 22:06 | 49.18866 | -123.16838 | 17 ft | 0 kts | 100° |